createdAt,value
2018-12-18T00:01:41.358Z,15.23
2018-12-18T00:05:48.994Z,13.53
2018-12-18T00:09:56.926Z,10.47
2018-12-18T00:14:01.514Z,15.73
2018-12-18T00:18:05.844Z,9.37
2018-12-18T00:22:08.657Z,14.37
2018-12-18T00:26:13.082Z,14.00
2018-12-18T00:30:17.594Z,16.30
2018-12-18T00:34:22.239Z,15.67
2018-12-18T00:38:29.766Z,14.00
2018-12-18T00:42:33.963Z,12.53
2018-12-18T00:46:36.702Z,9.83
2018-12-18T00:50:41.295Z,8.03
2018-12-18T00:54:45.594Z,16.63
2018-12-18T00:58:53.566Z,11.60
2018-12-18T01:02:58.243Z,9.27
2018-12-18T01:07:02.792Z,7.83
2018-12-18T01:11:07.546Z,14.60
2018-12-18T01:15:13.133Z,13.00
2018-12-18T01:19:15.165Z,13.27
2018-12-18T01:23:20.325Z,11.83
2018-12-18T01:27:24.603Z,9.53
2018-12-18T01:31:27.066Z,14.57
2018-12-18T01:35:31.378Z,15.87
2018-12-18T01:39:35.586Z,11.23
2018-12-18T01:43:40.146Z,7.27
2018-12-18T01:47:44.590Z,14.97
2018-12-18T01:51:48.671Z,8.47
2018-12-18T01:55:56.426Z,11.63
2018-12-18T02:00:00.958Z,13.50
2018-12-18T02:04:06.200Z,12.33
2018-12-18T02:08:11.298Z,9.83
2018-12-18T02:12:15.814Z,10.53
2018-12-18T02:16:19.179Z,12.60
2018-12-18T02:20:23.924Z,9.30
2018-12-18T02:24:32.545Z,13.73
2018-12-18T02:28:37.485Z,10.43
2018-12-18T02:32:40.146Z,7.40
2018-12-18T02:36:42.846Z,6.20
2018-12-18T02:40:45.643Z,9.33
2018-12-18T02:44:54.441Z,9.50
2018-12-18T02:48:59.010Z,6.47
2018-12-18T02:53:05.340Z,12.40
2018-12-18T02:57:09.197Z,12.20
2018-12-18T03:01:13.958Z,10.77
2018-12-18T03:05:20.248Z,10.87
2018-12-18T03:09:25.474Z,15.70
2018-12-18T03:13:28.242Z,8.77
2018-12-18T03:17:30.776Z,15.50
2018-12-18T03:21:33.564Z,13.43
2018-12-18T03:25:38.573Z,10.17
2018-12-18T03:29:41.265Z,12.40
2018-12-18T03:33:46.425Z,12.97
2018-12-18T03:37:53.315Z,10.03
2018-12-18T03:42:00.107Z,13.03
2018-12-18T03:46:07.881Z,8.40
2018-12-18T03:50:12.871Z,17.00
2018-12-18T03:54:27.935Z,10.03
2018-12-18T03:58:41.046Z,9.50
2018-12-18T04:02:43.770Z,9.97
2018-12-18T04:06:46.131Z,8.60
2018-12-18T04:10:54.035Z,9.00
2018-12-18T04:14:59.251Z,8.07
2018-12-18T04:19:03.971Z,6.77
2018-12-18T04:23:08.265Z,10.27
2018-12-18T04:27:15.334Z,8.30
2018-12-18T04:31:24.877Z,6.97
2018-12-18T04:35:29.428Z,11.13
2018-12-18T04:39:33.731Z,7.87
2018-12-18T04:43:36.343Z,5.90
2018-12-18T04:47:38.913Z,8.90
2018-12-18T04:51:44.004Z,6.30
2018-12-18T05:00:14.704Z,5.83
2018-12-18T05:04:19.736Z,6.33
2018-12-18T05:08:24.400Z,6.43
2018-12-18T05:12:28.544Z,9.30
2018-12-18T05:16:33.491Z,5.07
2018-12-18T05:20:36.785Z,5.80
2018-12-18T05:24:41.979Z,7.03
2018-12-18T05:33:23.405Z,9.37
2018-12-18T05:37:35.562Z,7.87
2018-12-18T05:41:38.756Z,5.73
2018-12-18T05:45:43.726Z,6.33
2018-12-18T05:49:46.617Z,5.13
2018-12-18T05:53:54.405Z,6.43
2018-12-18T05:57:59.121Z,5.20
2018-12-18T06:02:04.860Z,6.47
2018-12-18T06:06:09.959Z,6.93
2018-12-18T06:10:21.192Z,4.23
2018-12-18T06:14:26.898Z,7.97
2018-12-18T06:18:32.631Z,5.97
2018-12-18T06:22:37.596Z,4.63
2018-12-18T06:26:48.001Z,4.77
2018-12-18T06:30:51.816Z,6.47
2018-12-18T06:34:56.006Z,6.23
2018-12-18T06:39:04.380Z,5.67
2018-12-18T06:43:12.178Z,6.20
2018-12-18T06:47:15.843Z,4.57
2018-12-18T06:51:23.891Z,5.57
2018-12-18T06:55:27.951Z,6.73
2018-12-18T06:59:38.899Z,9.93
2018-12-18T07:03:46.521Z,8.40
2018-12-18T07:07:57.625Z,4.93
2018-12-18T07:12:02.021Z,5.10
2018-12-18T07:16:07.963Z,6.73
2018-12-18T07:20:14.154Z,4.23
2018-12-18T07:24:18.682Z,10.53
2018-12-18T07:28:24.345Z,4.70
2018-12-18T07:32:31.118Z,5.07
2018-12-18T07:36:36.077Z,5.57
2018-12-18T07:40:44.630Z,7.40
2018-12-18T07:44:48.978Z,4.43
2018-12-18T07:48:55.230Z,4.57
2018-12-18T07:53:00.038Z,4.23
2018-12-18T07:57:02.120Z,5.13
2018-12-18T08:01:07.564Z,5.20
2018-12-18T08:05:08.762Z,9.03
2018-12-18T08:09:21.079Z,3.90
2018-12-18T08:13:25.903Z,4.27
2018-12-18T08:17:33.169Z,4.77
2018-12-18T08:21:47.581Z,7.63
2018-12-18T08:26:00.822Z,7.00
2018-12-18T08:30:08.322Z,4.37
2018-12-18T08:34:15.798Z,6.03
2018-12-18T08:38:24.095Z,2.50
2018-12-18T08:42:38.458Z,4.03
2018-12-18T08:46:50.033Z,8.00
2018-12-18T08:50:55.472Z,5.97
2018-12-18T08:54:59.565Z,2.70
2018-12-18T08:59:07.409Z,5.67
2018-12-18T09:03:11.995Z,6.60
2018-12-18T09:07:15.059Z,4.67
2018-12-18T09:11:19.046Z,4.90
2018-12-18T09:15:28.587Z,6.57
2018-12-18T09:19:46.610Z,7.53
2018-12-18T09:24:02.031Z,12.13
2018-12-18T09:28:07.790Z,4.93
2018-12-18T09:32:11.182Z,7.60
2018-12-18T09:36:17.350Z,9.70
2018-12-18T09:40:22.220Z,6.83
2018-12-18T09:44:30.567Z,5.83
2018-12-18T09:53:00.309Z,6.30
2018-12-18T09:57:03.099Z,8.80
2018-12-18T10:01:09.177Z,4.30
2018-12-18T10:05:16.132Z,6.50
2018-12-18T10:09:21.983Z,5.93
2018-12-18T10:13:26.076Z,5.80
2018-12-18T10:17:28.467Z,5.70
2018-12-18T10:21:40.691Z,3.87
2018-12-18T10:25:53.489Z,6.13
2018-12-18T10:29:58.083Z,7.67
2018-12-18T10:34:07.626Z,6.47
2018-12-18T10:38:24.704Z,6.33
2018-12-18T10:42:29.795Z,5.63
2018-12-18T10:46:43.725Z,9.83
2018-12-18T10:50:52.703Z,6.57
2018-12-18T10:55:06.543Z,8.47
2018-12-18T10:59:10.986Z,6.20
2018-12-18T11:03:25.386Z,8.70
2018-12-18T11:07:27.607Z,16.60
2018-12-18T11:11:31.693Z,3.57
2018-12-18T11:15:34.718Z,8.20
2018-12-18T11:19:39.941Z,7.43
2018-12-18T11:23:56.645Z,6.67
2018-12-18T11:28:05.645Z,6.20
2018-12-18T11:32:11.553Z,3.47
2018-12-18T11:36:16.703Z,7.43
2018-12-18T11:40:21.855Z,4.87
2018-12-18T11:44:25.805Z,8.27
2018-12-18T11:48:28.892Z,4.27
2018-12-18T11:52:32.321Z,5.90
2018-12-18T12:01:20.181Z,4.10
2018-12-18T12:05:35.815Z,5.80
2018-12-18T12:09:39.523Z,6.57
2018-12-18T12:13:44.071Z,7.50
2018-12-18T12:17:52.064Z,7.37
2018-12-18T12:21:56.127Z,6.80
2018-12-18T12:26:04.341Z,4.60
2018-12-18T12:30:09.462Z,4.93
2018-12-18T12:34:16.874Z,6.60
2018-12-18T12:38:20.993Z,11.20
2018-12-18T12:42:25.197Z,7.37
2018-12-18T12:46:34.106Z,8.50
2018-12-18T12:50:38.375Z,7.37
2018-12-18T12:54:48.859Z,10.57
2018-12-18T13:03:20.752Z,9.00
2018-12-18T13:07:23.571Z,10.30
2018-12-18T13:15:53.008Z,6.73
2018-12-18T13:19:57.221Z,3.97
2018-12-18T13:24:01.819Z,8.47
2018-12-18T13:28:05.691Z,8.70
2018-12-18T13:32:08.557Z,8.97
2018-12-18T13:36:12.494Z,5.40
2018-12-18T13:40:17.596Z,8.30
2018-12-18T13:44:22.870Z,3.30
2018-12-18T13:48:27.185Z,9.10
2018-12-18T13:52:31.076Z,8.70
2018-12-18T13:56:35.192Z,6.70
2018-12-18T14:00:37.307Z,4.17
2018-12-18T14:04:48.707Z,7.20
2018-12-18T14:08:52.826Z,4.60
2018-12-18T14:12:58.238Z,6.43
2018-12-18T14:17:01.043Z,9.77
2018-12-18T14:21:05.968Z,13.57
2018-12-18T14:25:10.180Z,5.40
2018-12-18T14:29:20.623Z,6.63
2018-12-18T14:33:28.565Z,4.77
2018-12-18T14:37:31.374Z,7.40
2018-12-18T14:41:35.014Z,3.47
2018-12-18T14:45:39.984Z,6.37
2018-12-18T14:49:44.239Z,6.90
2018-12-18T14:53:48.837Z,6.53
2018-12-18T14:57:53.164Z,9.00
2018-12-18T15:01:57.111Z,3.40
2018-12-18T15:06:01.436Z,5.13
2018-12-18T15:10:08.337Z,6.37
2018-12-18T15:14:11.356Z,5.17
2018-12-18T15:18:15.435Z,5.33
2018-12-18T15:26:50.145Z,4.67
2018-12-18T15:30:54.436Z,8.43
2018-12-18T15:35:00.630Z,5.97
2018-12-18T15:39:07.491Z,5.63
2018-12-18T15:47:35.919Z,4.63
2018-12-18T15:51:47.097Z,4.80
2018-12-18T15:56:02.538Z,3.73
2018-12-18T16:00:08.119Z,6.23
2018-12-18T16:04:12.578Z,4.73
2018-12-18T16:08:20.564Z,4.13
2018-12-18T16:12:24.648Z,2.73
2018-12-18T16:16:28.587Z,9.93
2018-12-18T16:20:33.381Z,4.20
2018-12-18T16:24:35.585Z,7.17
2018-12-18T16:28:39.465Z,2.77
2018-12-18T16:37:10.850Z,10.60
2018-12-18T16:41:18.499Z,3.17
2018-12-18T16:45:22.696Z,3.63
2018-12-18T16:49:27.061Z,4.47
2018-12-18T16:53:36.652Z,4.87
2018-12-18T16:57:39.116Z,13.67
2018-12-18T17:01:53.454Z,3.83
2018-12-18T17:10:18.474Z,3.40
2018-12-18T17:14:27.471Z,3.00
2018-12-18T17:18:34.582Z,3.47
2018-12-18T17:22:38.982Z,6.17
2018-12-18T17:26:47.683Z,4.30
2018-12-18T17:30:51.365Z,4.10
2018-12-18T17:34:59.263Z,3.80
2018-12-18T17:39:04.695Z,5.80
2018-12-18T17:43:12.691Z,5.40
2018-12-18T17:47:14.873Z,7.10
2018-12-18T17:51:25.960Z,5.40
2018-12-18T17:55:31.486Z,5.17
2018-12-18T17:59:35.870Z,6.60
2018-12-18T18:03:38.270Z,5.83
2018-12-18T18:07:43.145Z,5.37
2018-12-18T18:11:56.664Z,5.73
2018-12-18T18:16:04.638Z,5.73
2018-12-18T18:20:08.631Z,3.73
2018-12-18T18:24:11.818Z,5.77
2018-12-18T18:28:14.251Z,6.57
2018-12-18T18:32:18.422Z,5.30
2018-12-18T18:36:23.033Z,4.47
2018-12-18T18:40:27.025Z,3.87
2018-12-18T18:49:01.728Z,7.30
2018-12-18T18:53:06.774Z,4.10
2018-12-18T18:57:08.914Z,3.03
2018-12-18T19:01:13.437Z,4.90
2018-12-18T19:05:18.383Z,2.40
2018-12-18T19:09:25.678Z,5.93
2018-12-18T19:13:31.401Z,3.10
2018-12-18T19:17:34.171Z,5.37
2018-12-18T19:21:38.511Z,4.60
2018-12-18T19:25:46.266Z,2.57
2018-12-18T19:29:50.756Z,3.20
2018-12-18T19:33:55.679Z,9.30
2018-12-18T19:38:03.211Z,3.20
2018-12-18T19:42:09.193Z,5.57
2018-12-18T19:46:24.317Z,6.10
2018-12-18T19:50:26.675Z,2.97
2018-12-18T19:54:31.898Z,3.57
2018-12-18T19:58:43.650Z,3.13
2018-12-18T20:02:57.792Z,2.27
2018-12-18T20:07:02.255Z,5.37
2018-12-18T20:11:07.035Z,4.17
2018-12-18T20:15:13.311Z,6.20
2018-12-18T20:19:26.371Z,3.27
2018-12-18T20:23:34.448Z,5.07
2018-12-18T20:27:40.760Z,4.43
2018-12-18T20:31:46.769Z,5.40
2018-12-18T20:35:51.987Z,4.37
2018-12-18T20:39:56.206Z,10.70
2018-12-18T20:44:01.966Z,2.93
2018-12-18T20:48:07.737Z,2.80
2018-12-18T20:52:14.631Z,2.13
2018-12-18T20:56:19.768Z,3.00
2018-12-18T21:00:27.966Z,2.90
2018-12-18T21:04:31.943Z,3.40
2018-12-18T21:08:36.350Z,2.20
2018-12-18T21:12:43.578Z,2.20
2018-12-18T21:16:49.714Z,2.07
2018-12-18T21:20:55.609Z,1.93
2018-12-18T21:24:59.734Z,3.13
2018-12-18T21:29:04.532Z,2.73
2018-12-18T21:33:10.946Z,4.23
2018-12-18T21:37:16.886Z,2.10
2018-12-18T21:41:20.407Z,2.10
2018-12-18T21:45:26.542Z,2.40
2018-12-18T21:49:32.196Z,2.47
2018-12-18T21:53:37.246Z,1.70
2018-12-18T21:57:42.954Z,3.23
2018-12-18T22:01:47.600Z,2.67
2018-12-18T22:05:54.844Z,2.40
2018-12-18T22:09:59.546Z,3.90
2018-12-18T22:14:06.434Z,3.13
2018-12-18T22:18:19.201Z,4.00
2018-12-18T22:22:24.061Z,1.70
2018-12-18T22:26:29.198Z,2.10
2018-12-18T22:30:34.478Z,2.10
2018-12-18T22:34:40.295Z,3.60
2018-12-18T22:38:49.347Z,1.70
2018-12-18T22:42:54.746Z,2.23
2018-12-18T22:47:00.115Z,4.43
2018-12-18T22:51:07.146Z,1.53
2018-12-18T22:55:12.249Z,1.33
2018-12-18T22:59:22.583Z,2.90
2018-12-18T23:03:27.369Z,1.67
2018-12-18T23:07:30.230Z,1.97
2018-12-18T23:11:37.562Z,2.80
2018-12-18T23:15:42.863Z,1.63
2018-12-18T23:19:47.042Z,4.97
2018-12-18T23:23:55.655Z,1.60
2018-12-18T23:28:10.742Z,1.87
2018-12-18T23:32:14.859Z,5.17
2018-12-18T23:36:21.311Z,1.53
2018-12-18T23:40:28.785Z,3.40
2018-12-18T23:44:32.689Z,4.07
2018-12-18T23:48:41.457Z,2.03
2018-12-18T23:52:44.938Z,2.07
2018-12-18T23:56:48.958Z,2.93
